createdAt,value
2023-06-05T00:01:59.006Z,1.20
2023-06-05T00:04:29.231Z,1.13
2023-06-05T00:06:59.221Z,1.20
2023-06-05T00:09:29.690Z,1.30
2023-06-05T00:12:00.005Z,1.20
2023-06-05T00:14:30.413Z,1.40
2023-06-05T00:17:02.162Z,1.20
2023-06-05T00:19:32.640Z,1.55
2023-06-05T00:22:02.675Z,1.90
2023-06-05T00:24:32.286Z,2.10
2023-06-05T00:27:01.961Z,2.08
2023-06-05T00:29:31.601Z,1.92
2023-06-05T00:32:03.998Z,2.08
2023-06-05T00:34:33.634Z,2.00
2023-06-05T00:37:04.103Z,2.03
2023-06-05T00:39:33.995Z,1.80
2023-06-05T00:42:03.886Z,2.22
2023-06-05T00:44:34.288Z,2.03
2023-06-05T00:47:07.691Z,1.80
2023-06-05T00:49:38.424Z,1.60
2023-06-05T00:52:09.985Z,1.50
2023-06-05T00:54:40.727Z,1.42
2023-06-05T00:57:11.441Z,1.48
2023-06-05T00:59:42.128Z,1.60
2023-06-05T01:02:14.288Z,1.75
2023-06-05T01:04:45.332Z,1.70
2023-06-05T01:07:15.722Z,1.80
2023-06-05T01:09:47.124Z,1.80
2023-06-05T01:12:30.098Z,1.77
2023-06-05T01:15:04.321Z,2.42
2023-06-05T01:17:37.252Z,2.30
2023-06-05T01:20:10.834Z,2.60
2023-06-05T01:22:41.079Z,2.65
2023-06-05T01:25:14.329Z,2.65
2023-06-05T01:27:51.243Z,2.75
2023-06-05T01:30:32.384Z,2.70
2023-06-05T01:33:09.840Z,2.72
2023-06-05T01:35:41.475Z,2.55
2023-06-05T01:38:15.271Z,2.58
2023-06-05T01:40:49.869Z,2.35
2023-06-05T01:43:21.520Z,2.30
2023-06-05T01:45:52.160Z,2.40
2023-06-05T01:48:24.920Z,2.20
2023-06-05T01:51:01.190Z,2.17
2023-06-05T01:53:32.400Z,2.20
2023-06-05T01:56:04.777Z,2.30
2023-06-05T01:58:35.159Z,2.15
2023-06-05T02:01:04.848Z,2.17
2023-06-05T02:03:35.743Z,2.33
2023-06-05T02:06:06.059Z,2.10
2023-06-05T02:08:37.269Z,2.03
2023-06-05T02:11:11.693Z,2.08
2023-06-05T02:13:45.267Z,2.15
2023-06-05T02:16:18.739Z,2.05
2023-06-05T02:18:50.178Z,2.20
2023-06-05T02:21:20.407Z,2.17
2023-06-05T02:23:51.345Z,2.05
2023-06-05T02:26:23.420Z,2.00
2023-06-05T02:28:55.398Z,1.95
2023-06-05T02:31:27.493Z,1.88
2023-06-05T02:33:58.722Z,2.20
2023-06-05T02:36:29.352Z,2.30
2023-06-05T02:38:59.568Z,2.15
2023-06-05T02:41:32.012Z,2.00
2023-06-05T02:44:02.865Z,2.10
2023-06-05T02:46:33.491Z,2.00
2023-06-05T02:49:03.229Z,2.08
2023-06-05T02:51:33.700Z,2.00
2023-06-05T02:54:04.197Z,1.65
2023-06-05T02:56:36.467Z,2.00
2023-06-05T02:59:06.739Z,2.30
2023-06-05T03:01:37.749Z,2.15
2023-06-05T03:04:08.355Z,2.10
2023-06-05T03:06:39.207Z,2.00
2023-06-05T03:09:09.632Z,2.17
2023-06-05T03:11:41.472Z,2.17
2023-06-05T03:14:12.464Z,2.00
2023-06-05T03:16:44.952Z,2.03
2023-06-05T03:19:15.614Z,2.20
2023-06-05T03:21:46.044Z,2.28
2023-06-05T03:24:17.737Z,2.10
2023-06-05T03:26:49.604Z,2.05
2023-06-05T03:29:20.094Z,2.00
2023-06-05T03:31:50.404Z,2.25
2023-06-05T03:34:20.492Z,2.22
2023-06-05T03:36:50.165Z,2.15
2023-06-05T03:39:20.212Z,2.20
2023-06-05T03:41:52.502Z,2.30
2023-06-05T03:44:24.328Z,2.25
2023-06-05T03:46:54.149Z,2.55
2023-06-05T03:49:24.519Z,2.50
2023-06-05T03:51:59.706Z,2.33
2023-06-05T03:54:30.484Z,2.10
2023-06-05T03:57:03.829Z,2.28
2023-06-05T03:59:35.752Z,2.33
2023-06-05T04:02:06.298Z,2.30
2023-06-05T04:04:36.380Z,2.40
2023-06-05T04:07:06.960Z,2.33
2023-06-05T04:09:37.244Z,2.33
2023-06-05T04:12:12.197Z,2.40
2023-06-05T04:14:42.203Z,2.10
2023-06-05T04:17:14.081Z,1.85
2023-06-05T04:19:44.447Z,2.03
2023-06-05T04:22:14.698Z,1.70
2023-06-05T04:24:45.001Z,2.00
2023-06-05T04:27:18.619Z,1.80
2023-06-05T04:29:51.410Z,1.73
2023-06-05T04:32:21.607Z,1.95
2023-06-05T04:34:53.120Z,1.58
2023-06-05T04:37:23.558Z,1.60
2023-06-05T04:39:54.025Z,1.50
2023-06-05T04:42:26.370Z,1.40
2023-06-05T04:45:02.603Z,1.33
2023-06-05T04:47:33.216Z,1.40
2023-06-05T04:50:05.961Z,1.45
2023-06-05T04:52:38.207Z,1.45
2023-06-05T04:55:08.961Z,1.50
2023-06-05T04:57:42.087Z,1.30
2023-06-05T05:00:14.200Z,1.38
2023-06-05T05:02:44.058Z,1.40
2023-06-05T05:05:14.973Z,1.50
2023-06-05T05:07:46.227Z,1.70
2023-06-05T05:10:17.416Z,1.35
2023-06-05T05:12:49.391Z,1.42
2023-06-05T05:15:19.410Z,1.55
2023-06-05T05:17:50.996Z,1.83
2023-06-05T05:20:21.715Z,1.50
2023-06-05T05:22:52.283Z,1.55
2023-06-05T05:25:22.779Z,1.60
2023-06-05T05:27:54.746Z,1.40
2023-06-05T05:30:25.217Z,1.90
2023-06-05T05:32:55.573Z,1.70
2023-06-05T05:35:26.568Z,1.60
2023-06-05T05:37:56.835Z,1.52
2023-06-05T05:40:27.389Z,1.33
2023-06-05T05:42:59.361Z,1.30
2023-06-05T05:45:29.148Z,1.48
2023-06-05T05:47:59.553Z,1.10
2023-06-05T05:50:30.240Z,1.42
2023-06-05T05:53:00.377Z,1.40
2023-06-05T05:55:30.925Z,1.40
2023-06-05T05:58:02.847Z,1.25
2023-06-05T06:00:32.609Z,1.35
2023-06-05T06:03:02.399Z,1.50
2023-06-05T06:05:33.170Z,1.25
2023-06-05T06:08:03.517Z,1.35
2023-06-05T06:10:33.904Z,1.75
2023-06-05T06:13:06.934Z,1.25
2023-06-05T06:15:38.637Z,1.27
2023-06-05T06:18:09.578Z,1.17
2023-06-05T06:20:40.766Z,1.42
2023-06-05T06:23:11.053Z,1.30
2023-06-05T06:25:41.900Z,1.60
2023-06-05T06:28:14.156Z,1.35
2023-06-05T06:30:45.074Z,1.35
2023-06-05T06:33:15.434Z,1.30
2023-06-05T06:35:59.836Z,1.50
2023-06-05T06:38:31.812Z,1.40
2023-06-05T06:41:02.809Z,1.27
2023-06-05T06:43:34.500Z,1.35
2023-06-05T06:46:06.015Z,1.38
2023-06-05T06:48:36.509Z,1.40
2023-06-05T06:51:06.982Z,1.50
2023-06-05T06:53:37.481Z,1.52
2023-06-05T06:56:07.901Z,1.60
2023-06-05T06:58:39.369Z,1.70
2023-06-05T07:01:10.767Z,1.60
2023-06-05T07:03:41.697Z,1.35
2023-06-05T07:06:13.587Z,1.65
2023-06-05T07:08:43.884Z,1.48
2023-06-05T07:11:14.709Z,1.60
2023-06-05T07:13:46.943Z,1.42
2023-06-05T07:16:17.437Z,1.40
2023-06-05T07:18:47.286Z,1.23
2023-06-05T07:21:17.038Z,1.17
2023-06-05T07:23:49.491Z,1.52
2023-06-05T07:26:20.052Z,1.20
2023-06-05T07:28:52.446Z,1.42
2023-06-05T07:31:22.986Z,1.58
2023-06-05T07:33:53.496Z,1.30
2023-06-05T07:36:23.915Z,1.17
2023-06-05T07:38:54.569Z,1.67
2023-06-05T07:41:25.087Z,1.25
2023-06-05T07:43:56.995Z,1.40
2023-06-05T07:46:27.605Z,1.30
2023-06-05T07:48:58.548Z,1.30
2023-06-05T07:51:28.885Z,1.30
2023-06-05T07:53:59.122Z,1.30
2023-06-05T07:56:29.816Z,1.30
2023-06-05T07:59:02.202Z,1.10
2023-06-05T08:01:37.811Z,1.25
2023-06-05T08:04:09.152Z,1.45
2023-06-05T08:06:39.738Z,1.48
2023-06-05T08:09:11.132Z,1.10
2023-06-05T08:11:41.998Z,1.20
2023-06-05T08:14:14.720Z,1.10
2023-06-05T08:16:45.117Z,1.23
2023-06-05T08:19:15.609Z,1.13
2023-06-05T08:21:46.105Z,1.08
2023-06-05T08:24:16.449Z,1.00
2023-06-05T08:26:46.434Z,1.15
2023-06-05T08:29:18.855Z,1.20
2023-06-05T08:31:49.310Z,1.10
2023-06-05T08:34:19.574Z,1.20
2023-06-05T08:36:49.981Z,1.30
2023-06-05T08:39:20.449Z,1.25
2023-06-05T08:41:56.511Z,1.15
2023-06-05T08:44:27.838Z,1.38
2023-06-05T08:47:03.740Z,1.20
2023-06-05T08:49:38.080Z,1.10
2023-06-05T08:52:11.826Z,1.10
2023-06-05T08:54:43.404Z,1.20
2023-06-05T08:57:13.812Z,1.23
2023-06-05T08:59:47.782Z,1.20
2023-06-05T09:02:18.184Z,1.02
2023-06-05T09:04:48.869Z,1.15
2023-06-05T09:07:19.803Z,1.15
2023-06-05T09:09:50.473Z,0.93
2023-06-05T09:12:20.882Z,1.23
2023-06-05T09:14:54.460Z,1.00
2023-06-05T09:17:26.345Z,1.10
2023-06-05T09:19:57.493Z,1.35
2023-06-05T09:22:37.493Z,1.23
2023-06-05T09:25:08.487Z,1.10
2023-06-05T09:27:40.368Z,1.20
2023-06-05T09:30:16.792Z,1.35
2023-06-05T09:32:47.313Z,1.40
2023-06-05T09:35:20.333Z,1.33
2023-06-05T09:37:50.626Z,1.23
2023-06-05T09:40:21.588Z,1.15
2023-06-05T09:42:51.953Z,1.20
2023-06-05T09:45:24.484Z,0.95
2023-06-05T09:47:54.793Z,0.98
2023-06-05T09:50:29.069Z,1.30
2023-06-05T09:53:03.086Z,0.93
2023-06-05T09:55:33.596Z,1.08
2023-06-05T09:58:13.077Z,1.15
2023-06-05T10:00:46.201Z,1.20
2023-06-05T10:03:20.981Z,1.10
2023-06-05T10:05:59.232Z,1.40
2023-06-05T10:08:31.382Z,1.10
2023-06-05T10:11:02.215Z,1.40
2023-06-05T10:13:33.053Z,1.17
2023-06-05T10:16:11.394Z,1.20
2023-06-05T10:18:45.309Z,1.10
2023-06-05T10:21:16.888Z,1.17
2023-06-05T10:23:52.303Z,1.25
2023-06-05T10:26:43.888Z,1.00
2023-06-05T10:29:37.553Z,1.02
2023-06-05T10:32:21.838Z,1.20
2023-06-05T10:35:14.243Z,0.85
2023-06-05T10:38:06.344Z,1.10
2023-06-05T10:40:37.345Z,1.13
2023-06-05T10:43:34.783Z,0.73
2023-06-05T10:46:26.334Z,1.20
2023-06-05T10:49:21.574Z,0.95
2023-06-05T10:51:53.241Z,0.90
2023-06-05T10:54:59.993Z,1.15
2023-06-05T10:57:50.527Z,1.00
2023-06-05T11:00:21.848Z,0.82
2023-06-05T11:02:52.981Z,0.98
2023-06-05T11:05:26.198Z,1.00
2023-06-05T11:08:15.691Z,0.88
2023-06-05T11:11:10.908Z,1.20
2023-06-05T11:14:00.540Z,1.00
2023-06-05T11:16:33.366Z,0.95
2023-06-05T11:19:40.186Z,1.13
2023-06-05T11:22:14.002Z,1.08
2023-06-05T11:24:43.991Z,1.00
2023-06-05T11:27:47.520Z,1.10
2023-06-05T11:30:28.026Z,0.90
2023-06-05T11:33:14.017Z,1.10
2023-06-05T11:35:45.783Z,1.20
2023-06-05T11:38:22.147Z,0.75
2023-06-05T11:40:55.069Z,0.73
2023-06-05T11:43:25.995Z,1.17
2023-06-05T11:45:58.336Z,1.10
2023-06-05T11:48:29.512Z,1.13
2023-06-05T11:51:02.786Z,1.05
2023-06-05T11:53:35.920Z,1.27
2023-06-05T11:56:18.325Z,0.80
2023-06-05T11:58:48.794Z,0.90
2023-06-05T12:01:23.671Z,1.00
2023-06-05T12:04:07.693Z,0.85
2023-06-05T12:06:44.341Z,1.10
2023-06-05T12:09:17.637Z,0.80
2023-06-05T12:11:48.556Z,1.23
2023-06-05T12:14:34.802Z,0.82
2023-06-05T12:17:13.116Z,1.00
2023-06-05T12:19:43.876Z,1.00
2023-06-05T12:22:15.277Z,0.90
2023-06-05T12:24:47.526Z,1.20
2023-06-05T12:27:17.366Z,0.88
2023-06-05T12:29:57.470Z,0.77
2023-06-05T12:32:29.527Z,0.80
2023-06-05T12:35:04.307Z,0.85
2023-06-05T12:37:39.166Z,0.88
2023-06-05T12:40:24.853Z,0.90
2023-06-05T12:42:54.984Z,0.70
2023-06-05T12:45:27.770Z,0.90
2023-06-05T12:47:58.084Z,0.95
2023-06-05T12:50:30.008Z,1.10
2023-06-05T12:52:59.906Z,0.90
2023-06-05T12:55:32.712Z,0.90
2023-06-05T12:58:02.974Z,1.30
2023-06-05T13:00:33.682Z,0.80
2023-06-05T13:03:05.278Z,1.00
2023-06-05T13:05:36.103Z,1.02
2023-06-05T13:08:07.881Z,1.02
2023-06-05T13:10:40.470Z,1.10
2023-06-05T13:13:10.942Z,1.00
2023-06-05T13:15:41.192Z,0.80
2023-06-05T13:18:11.928Z,0.85
2023-06-05T13:20:42.351Z,1.00
2023-06-05T13:23:13.071Z,1.08
2023-06-05T13:25:44.646Z,0.98
2023-06-05T13:28:14.832Z,1.00
2023-06-05T13:30:45.599Z,0.88
2023-06-05T13:33:16.047Z,0.93
2023-06-05T13:35:46.303Z,0.90
2023-06-05T13:38:16.713Z,0.90
2023-06-05T13:40:51.294Z,0.90
2023-06-05T13:43:22.099Z,1.10
2023-06-05T13:45:52.779Z,1.00
2023-06-05T13:48:22.937Z,0.90
2023-06-05T13:50:53.173Z,1.00
2023-06-05T13:53:23.573Z,0.82
2023-06-05T13:55:56.038Z,1.00
2023-06-05T13:58:26.596Z,0.85
2023-06-05T14:00:56.529Z,0.98
2023-06-05T14:03:27.391Z,0.90
2023-06-05T14:05:57.814Z,0.70
2023-06-05T14:08:29.196Z,1.00
2023-06-05T14:11:01.409Z,1.00
2023-06-05T14:13:31.139Z,1.10
2023-06-05T14:16:01.448Z,1.02
2023-06-05T14:18:31.317Z,1.10
2023-06-05T14:21:01.678Z,0.82
2023-06-05T14:23:34.160Z,0.85
2023-06-05T14:26:06.434Z,0.90
2023-06-05T14:28:36.377Z,0.90
2023-06-05T14:31:06.288Z,1.00
2023-06-05T14:33:36.918Z,0.98
2023-06-05T14:36:07.980Z,0.60
2023-06-05T14:38:39.201Z,0.98
2023-06-05T14:41:11.688Z,0.93
2023-06-05T14:43:41.903Z,1.08
2023-06-05T14:46:13.630Z,0.80
2023-06-05T14:48:46.064Z,1.02
2023-06-05T14:51:16.333Z,0.90
2023-06-05T14:53:46.836Z,0.88
2023-06-05T14:56:18.317Z,1.02
2023-06-05T14:58:48.035Z,0.80
2023-06-05T15:01:18.065Z,1.08
2023-06-05T15:03:49.790Z,0.80
2023-06-05T15:06:23.223Z,0.98
2023-06-05T15:08:55.604Z,0.90
2023-06-05T15:11:28.201Z,1.20
2023-06-05T15:13:57.952Z,1.00
2023-06-05T15:16:39.995Z,0.85
2023-06-05T15:19:11.920Z,0.68
2023-06-05T15:21:42.514Z,0.98
2023-06-05T15:24:13.137Z,0.90
2023-06-05T15:26:44.889Z,1.05
2023-06-05T15:29:14.729Z,1.10
2023-06-05T15:31:45.907Z,1.20
2023-06-05T15:34:17.850Z,0.93
2023-06-05T15:36:47.772Z,0.90
2023-06-05T15:39:18.066Z,1.20
2023-06-05T15:41:50.807Z,1.10
2023-06-05T15:44:21.369Z,1.00
2023-06-05T15:46:51.516Z,1.00
2023-06-05T15:49:21.306Z,0.90
2023-06-05T15:51:51.607Z,1.13
2023-06-05T15:54:45.532Z,1.00
2023-06-05T15:57:14.038Z,0.93
2023-06-05T15:59:43.711Z,0.77
2023-06-05T16:02:13.771Z,0.98
2023-06-05T16:04:44.053Z,1.20
2023-06-05T16:07:14.257Z,0.95
2023-06-05T16:09:44.132Z,0.82
2023-06-05T16:12:16.681Z,0.95
2023-06-05T16:14:46.899Z,1.10
2023-06-05T16:17:17.399Z,0.95
2023-06-05T16:19:47.735Z,1.10
2023-06-05T16:22:19.540Z,0.85
2023-06-05T16:24:49.904Z,1.00
2023-06-05T16:27:22.753Z,0.90
2023-06-05T16:29:53.910Z,0.95
2023-06-05T16:32:24.263Z,0.93
2023-06-05T16:35:00.401Z,0.90
2023-06-05T16:37:30.862Z,0.95
2023-06-05T16:40:02.111Z,0.88
2023-06-05T16:42:34.260Z,0.95
2023-06-05T16:45:04.945Z,1.00
2023-06-05T16:47:43.400Z,0.93
2023-06-05T16:50:13.498Z,0.80
2023-06-05T16:52:43.890Z,0.82
2023-06-05T16:55:13.840Z,1.00
2023-06-05T16:57:47.219Z,0.82
2023-06-05T17:00:20.111Z,1.10
2023-06-05T17:02:49.859Z,0.82
2023-06-05T17:05:20.050Z,1.20
2023-06-05T17:07:50.574Z,0.90
2023-06-05T17:10:22.408Z,1.08
2023-06-05T17:12:54.880Z,1.23
2023-06-05T17:15:25.346Z,1.00
2023-06-05T17:17:55.312Z,1.00
2023-06-05T17:20:25.681Z,1.15
2023-06-05T17:22:56.611Z,0.93
2023-06-05T17:25:26.992Z,1.10
2023-06-05T17:27:58.964Z,0.90
2023-06-05T17:30:29.820Z,1.10
2023-06-05T17:33:00.304Z,1.13
2023-06-05T17:35:31.172Z,1.00
2023-06-05T17:38:01.650Z,1.30
2023-06-05T17:40:32.556Z,1.10
2023-06-05T17:43:06.553Z,1.15
2023-06-05T17:45:37.159Z,1.20
2023-06-05T17:48:08.309Z,1.30
2023-06-05T17:50:38.865Z,1.17
2023-06-05T17:53:08.995Z,0.90
2023-06-05T17:55:40.641Z,1.40
2023-06-05T17:58:12.426Z,1.15
2023-06-05T18:00:44.195Z,1.27
2023-06-05T18:03:14.778Z,1.15
2023-06-05T18:05:45.150Z,1.30
2023-06-05T18:08:15.518Z,1.30
2023-06-05T18:10:46.105Z,1.17
2023-06-05T18:13:18.733Z,1.25
2023-06-05T18:15:49.406Z,1.50
2023-06-05T18:18:19.596Z,1.27
2023-06-05T18:20:49.294Z,1.30
2023-06-05T18:23:19.754Z,1.20
2023-06-05T18:25:50.344Z,1.10
2023-06-05T18:28:22.199Z,1.20
2023-06-05T18:30:52.321Z,1.00
2023-06-05T18:33:22.482Z,1.17
2023-06-05T18:35:52.805Z,1.10
2023-06-05T18:38:23.177Z,1.00
2023-06-05T18:40:53.899Z,1.40
2023-06-05T18:43:26.339Z,1.30
2023-06-05T18:45:56.659Z,1.15
2023-06-05T18:48:27.409Z,1.30
2023-06-05T18:51:04.793Z,1.27
2023-06-05T18:53:35.445Z,1.45
2023-06-05T18:56:08.233Z,1.33
2023-06-05T18:58:41.864Z,1.05
2023-06-05T19:01:13.330Z,1.05
2023-06-05T19:03:44.411Z,1.15
2023-06-05T19:06:14.413Z,1.10
2023-06-05T19:08:44.979Z,1.15
2023-06-05T19:11:15.788Z,1.30
2023-06-05T19:13:47.725Z,1.10
2023-06-05T19:16:17.840Z,1.20
2023-06-05T19:18:48.172Z,1.05
2023-06-05T19:21:18.651Z,1.25
2023-06-05T19:23:48.990Z,1.52
2023-06-05T19:26:19.469Z,1.35
2023-06-05T19:28:51.677Z,1.20
2023-06-05T19:31:21.904Z,1.40
2023-06-05T19:33:52.172Z,1.40
2023-06-05T19:36:22.215Z,1.30
2023-06-05T19:38:53.260Z,1.30
2023-06-05T19:41:23.066Z,1.30
2023-06-05T19:43:55.137Z,1.20
2023-06-05T19:46:24.908Z,1.20
2023-06-05T19:48:55.651Z,1.25
2023-06-05T19:51:25.777Z,1.20
2023-06-05T19:53:56.430Z,1.20
2023-06-05T19:56:27.112Z,1.40
2023-06-05T19:58:59.217Z,1.20
2023-06-05T20:01:29.857Z,1.30
2023-06-05T20:04:00.366Z,1.15
2023-06-05T20:06:31.338Z,1.20
2023-06-05T20:09:01.769Z,1.20
2023-06-05T20:11:32.108Z,1.27
2023-06-05T20:14:04.062Z,1.25
2023-06-05T20:16:34.565Z,1.25
2023-06-05T20:19:05.203Z,1.50
2023-06-05T20:21:36.576Z,1.17
2023-06-05T20:24:08.818Z,1.20
2023-06-05T20:26:40.089Z,1.20
2023-06-05T20:29:15.730Z,1.38
2023-06-05T20:31:47.295Z,1.40
2023-06-05T20:34:17.861Z,1.23
2023-06-05T20:36:48.320Z,1.13
2023-06-05T20:39:21.867Z,1.30
2023-06-05T20:41:53.696Z,1.20
2023-06-05T20:44:27.379Z,1.50
2023-06-05T20:46:57.196Z,1.25
2023-06-05T20:49:27.916Z,1.17
2023-06-05T20:51:58.239Z,1.33
2023-06-05T20:54:28.180Z,1.30
2023-06-05T20:56:58.106Z,1.40
2023-06-05T20:59:30.624Z,1.20
2023-06-05T21:02:01.191Z,1.30
2023-06-05T21:04:31.308Z,1.38
2023-06-05T21:07:03.077Z,1.20
2023-06-05T21:09:33.565Z,1.50
2023-06-05T21:12:04.075Z,1.38
2023-06-05T21:14:39.585Z,1.42
2023-06-05T21:17:10.575Z,1.45
2023-06-05T21:19:40.921Z,1.42
2023-06-05T21:22:11.916Z,1.35
2023-06-05T21:24:42.607Z,1.20
2023-06-05T21:27:13.740Z,1.35
2023-06-05T21:29:45.396Z,1.17
2023-06-05T21:32:15.656Z,1.60
2023-06-05T21:34:46.744Z,1.33
2023-06-05T21:37:19.462Z,1.40
2023-06-05T21:39:50.574Z,1.40
2023-06-05T21:42:21.219Z,1.25
2023-06-05T21:44:53.512Z,1.40
2023-06-05T21:47:23.866Z,1.40
2023-06-05T21:49:54.189Z,1.25
2023-06-05T21:52:24.792Z,1.40
2023-06-05T21:54:54.543Z,1.30
2023-06-05T21:57:25.082Z,1.50
2023-06-05T21:59:57.091Z,1.50
2023-06-05T22:02:28.189Z,1.40
2023-06-05T22:04:58.828Z,1.55
2023-06-05T22:07:36.615Z,1.40
2023-06-05T22:10:07.787Z,1.23
2023-06-05T22:12:38.774Z,1.50
2023-06-05T22:15:13.907Z,1.42
2023-06-05T22:17:47.785Z,1.30
2023-06-05T22:20:19.221Z,1.73
2023-06-05T22:22:50.271Z,1.23
2023-06-05T22:25:20.783Z,1.77
2023-06-05T22:27:51.105Z,1.55
2023-06-05T22:30:22.379Z,1.52
2023-06-05T22:32:54.449Z,1.33
2023-06-05T22:35:25.017Z,1.15
2023-06-05T22:37:56.872Z,1.60
2023-06-05T22:40:27.493Z,1.30
2023-06-05T22:42:57.463Z,1.50
2023-06-05T22:45:29.323Z,1.52
2023-06-05T22:47:59.202Z,1.42
2023-06-05T22:50:29.601Z,1.38
2023-06-05T22:53:02.448Z,1.40
2023-06-05T22:55:33.093Z,1.40
2023-06-05T22:58:03.530Z,1.40
2023-06-05T23:00:35.995Z,1.60
2023-06-05T23:03:08.650Z,1.30
2023-06-05T23:05:39.339Z,1.60
2023-06-05T23:08:09.775Z,1.30
2023-06-05T23:10:39.815Z,1.40
2023-06-05T23:13:09.564Z,1.30
2023-06-05T23:15:46.993Z,1.40
2023-06-05T23:18:19.326Z,1.60
2023-06-05T23:20:49.803Z,1.40
2023-06-05T23:23:20.396Z,1.50
2023-06-05T23:25:51.370Z,1.40
2023-06-05T23:28:22.577Z,1.35
2023-06-05T23:30:54.736Z,1.63
2023-06-05T23:33:24.791Z,1.65
2023-06-05T23:35:55.114Z,1.50
2023-06-05T23:38:25.326Z,1.30
2023-06-05T23:40:55.140Z,1.55
2023-06-05T23:43:26.434Z,1.60
2023-06-05T23:45:58.850Z,1.60
2023-06-05T23:48:28.913Z,1.63
2023-06-05T23:51:02.399Z,1.50
2023-06-05T23:53:32.696Z,1.50
2023-06-05T23:56:02.860Z,1.48
2023-06-05T23:58:32.650Z,1.38
